createdAt,value
2023-05-11T00:01:46.146Z,11.60
2023-05-11T00:08:28.679Z,18.35
2023-05-11T00:15:11.338Z,33.58
2023-05-11T00:21:53.556Z,34.70
2023-05-11T00:28:36.113Z,28.70
2023-05-11T00:35:18.405Z,24.38
2023-05-11T00:42:01.045Z,25.70
2023-05-11T00:48:44.328Z,16.05
2023-05-11T00:55:27.564Z,21.02
2023-05-11T01:02:10.147Z,18.40
2023-05-11T01:09:09.769Z,13.35
2023-05-11T01:15:56.496Z,9.60
2023-05-11T01:22:54.523Z,10.10
2023-05-11T01:30:15.210Z,11.13
2023-05-11T01:37:22.985Z,10.77
2023-05-11T01:44:10.642Z,12.25
2023-05-11T01:50:54.601Z,9.07
2023-05-11T01:57:38.206Z,9.00
2023-05-11T02:04:23.225Z,8.07
2023-05-11T02:11:07.340Z,12.07
2023-05-11T02:17:52.072Z,12.50
2023-05-11T02:24:35.749Z,9.20
2023-05-11T02:31:25.341Z,9.02
2023-05-11T02:38:09.338Z,11.60
2023-05-11T02:45:03.828Z,11.80
2023-05-11T02:51:50.579Z,11.60
2023-05-11T02:58:32.995Z,9.55
2023-05-11T03:05:28.522Z,13.93
2023-05-11T03:12:11.559Z,10.27
2023-05-11T03:18:55.990Z,6.38
2023-05-11T03:25:39.248Z,8.63
2023-05-11T03:32:21.733Z,10.02
2023-05-11T03:39:05.420Z,14.82
2023-05-11T03:45:52.305Z,11.13
2023-05-11T03:52:36.361Z,10.95
2023-05-11T03:59:19.067Z,14.82
2023-05-11T04:06:01.451Z,10.82
2023-05-11T04:12:43.888Z,10.77
2023-05-11T04:19:26.111Z,14.63
2023-05-11T04:26:08.292Z,14.13
2023-05-11T04:32:50.535Z,13.57
2023-05-11T04:39:34.259Z,9.23
2023-05-11T04:46:16.633Z,7.82
2023-05-11T04:52:58.882Z,8.57
2023-05-11T04:59:41.210Z,8.32
2023-05-11T05:06:23.682Z,10.23
2023-05-11T05:13:06.709Z,6.30
2023-05-11T05:19:48.998Z,10.23
2023-05-11T05:26:31.609Z,11.93
2023-05-11T05:33:14.640Z,9.20
2023-05-11T05:39:57.342Z,9.05
2023-05-11T05:46:40.155Z,8.48
2023-05-11T05:53:22.624Z,7.50
2023-05-11T06:00:05.869Z,10.73
2023-05-11T06:06:56.072Z,5.95
2023-05-11T06:13:38.962Z,9.23
2023-05-11T06:20:21.850Z,8.25
2023-05-11T06:27:04.279Z,15.07
2023-05-11T06:33:47.847Z,8.50
2023-05-11T06:40:37.304Z,9.70
2023-05-11T06:47:19.700Z,7.50
2023-05-11T06:54:01.971Z,7.05
2023-05-11T07:00:44.164Z,7.93
2023-05-11T07:07:26.553Z,9.60
2023-05-11T07:14:08.771Z,7.53
2023-05-11T07:20:51.034Z,11.23
2023-05-11T07:27:34.882Z,8.18
2023-05-11T07:34:17.138Z,4.45
2023-05-11T07:40:59.920Z,12.88
2023-05-11T07:47:42.219Z,6.70
2023-05-11T07:54:24.430Z,5.13
2023-05-11T08:01:07.252Z,9.82
2023-05-11T08:07:49.698Z,9.20
2023-05-11T08:14:32.874Z,9.35
2023-05-11T08:21:15.212Z,5.90
2023-05-11T08:27:57.661Z,6.55
2023-05-11T08:34:40.094Z,10.73
2023-05-11T08:41:23.425Z,5.90
2023-05-11T08:48:06.389Z,6.77
2023-05-11T08:54:49.007Z,2.85
2023-05-11T09:01:31.980Z,4.78
2023-05-11T09:08:15.856Z,6.03
2023-05-11T09:15:01.959Z,8.43
2023-05-11T09:21:44.655Z,4.32
2023-05-11T09:28:27.696Z,2.67
2023-05-11T09:35:26.859Z,5.10
2023-05-11T09:42:13.829Z,8.88
2023-05-11T09:49:01.167Z,7.80
2023-05-11T09:55:54.953Z,5.82
2023-05-11T10:02:37.262Z,7.80
2023-05-11T10:09:25.628Z,6.35
2023-05-11T10:16:10.275Z,6.18
2023-05-11T10:22:55.231Z,5.70
2023-05-11T10:29:38.247Z,7.97
2023-05-11T10:36:23.872Z,7.40
2023-05-11T10:43:54.181Z,5.07
2023-05-11T10:50:48.439Z,6.13
2023-05-11T10:58:13.313Z,9.10
2023-05-11T11:04:56.549Z,3.70
2023-05-11T11:11:41.102Z,5.50
2023-05-11T11:18:33.573Z,10.85
2023-05-11T11:25:36.856Z,4.33
2023-05-11T11:32:23.148Z,9.45
2023-05-11T11:39:05.678Z,15.02
2023-05-11T11:45:59.722Z,7.57
2023-05-11T11:52:42.026Z,7.72
2023-05-11T11:59:24.570Z,8.30
2023-05-11T12:06:09.198Z,4.25
2023-05-11T12:12:58.585Z,6.75
2023-05-11T12:19:44.350Z,5.10
2023-05-11T12:26:29.924Z,22.38
2023-05-11T12:33:15.850Z,9.25
2023-05-11T12:39:59.667Z,6.43
2023-05-11T12:46:42.143Z,6.10
2023-05-11T12:53:24.432Z,8.17
2023-05-11T13:00:11.862Z,6.30
2023-05-11T13:06:54.396Z,10.50
2023-05-11T13:13:37.805Z,9.33
2023-05-11T13:20:24.580Z,7.10
2023-05-11T13:27:07.063Z,7.43
2023-05-11T13:33:53.226Z,8.80
2023-05-11T13:40:35.854Z,5.70
2023-05-11T13:47:18.133Z,4.28
2023-05-11T13:54:02.548Z,7.20
2023-05-11T14:00:56.466Z,9.45
2023-05-11T14:07:48.248Z,3.22
2023-05-11T14:14:31.353Z,5.45
2023-05-11T14:21:13.707Z,6.87
2023-05-11T14:27:55.977Z,11.87
2023-05-11T14:34:38.459Z,8.23
2023-05-11T14:41:21.364Z,32.70
2023-05-11T14:48:04.957Z,18.85
2023-05-11T14:54:51.293Z,11.00
2023-05-11T15:01:34.896Z,9.98
2023-05-11T15:08:29.013Z,4.18
2023-05-11T15:15:13.015Z,5.22
2023-05-11T15:21:55.997Z,13.35
2023-05-11T15:35:21.790Z,11.43
2023-05-11T15:42:05.880Z,5.45
2023-05-11T15:48:48.257Z,14.00
2023-05-11T15:55:30.646Z,6.97
2023-05-11T16:02:13.044Z,10.57
2023-05-11T16:08:55.936Z,11.20
2023-05-11T16:15:38.382Z,6.63
2023-05-11T16:22:21.069Z,13.27
2023-05-11T16:29:03.914Z,13.47
2023-05-11T16:35:46.802Z,5.40
2023-05-11T16:42:32.104Z,9.07
2023-05-11T16:49:14.274Z,9.77
2023-05-11T16:55:57.046Z,11.88
2023-05-11T17:02:39.925Z,10.90
2023-05-11T17:09:22.329Z,7.88
2023-05-11T17:16:05.170Z,8.43
2023-05-11T17:22:47.701Z,11.03
2023-05-11T17:29:30.027Z,9.85
2023-05-11T17:36:12.850Z,5.40
2023-05-11T17:42:55.102Z,9.93
2023-05-11T17:49:37.344Z,6.55
2023-05-11T17:56:19.717Z,6.18
2023-05-11T18:03:02.059Z,9.38
2023-05-11T18:09:44.616Z,4.38
2023-05-11T18:16:26.876Z,16.13
2023-05-11T18:23:09.171Z,6.32
2023-05-11T18:29:51.914Z,17.23
2023-05-11T18:36:34.564Z,17.77
2023-05-11T18:43:16.902Z,25.70
2023-05-11T18:49:59.064Z,21.30
2023-05-11T18:56:41.355Z,11.40
2023-05-11T19:03:23.672Z,14.30
2023-05-11T19:10:08.153Z,13.25
2023-05-11T19:23:33.504Z,11.90
2023-05-11T19:30:15.684Z,7.25
2023-05-11T19:36:57.866Z,11.05
2023-05-11T19:43:40.260Z,10.02
2023-05-11T19:50:24.395Z,8.55
2023-05-11T19:57:08.468Z,14.00
2023-05-11T20:03:52.502Z,26.00
2023-05-11T20:10:35.774Z,26.15
2023-05-11T20:17:18.126Z,27.45
2023-05-11T20:24:03.620Z,25.05
2023-05-11T20:30:46.322Z,21.80
2023-05-11T20:37:31.961Z,23.40
2023-05-11T20:44:14.316Z,22.75
2023-05-11T20:50:56.618Z,16.67
2023-05-11T20:57:39.586Z,19.73
2023-05-11T21:04:22.043Z,18.27
2023-05-11T21:11:04.663Z,20.67
2023-05-11T21:17:46.929Z,18.48
2023-05-11T21:24:29.207Z,17.92
2023-05-11T21:31:11.644Z,20.88
2023-05-11T21:37:54.181Z,21.00
2023-05-11T21:44:36.478Z,19.25
2023-05-11T21:51:18.684Z,17.02
2023-05-11T21:58:02.316Z,19.67
2023-05-11T22:04:46.317Z,14.03
2023-05-11T22:11:28.667Z,13.80
2023-05-11T22:18:10.949Z,18.35
2023-05-11T22:24:53.693Z,18.80
2023-05-11T22:31:36.034Z,11.27
2023-05-11T22:38:18.404Z,14.32
2023-05-11T22:45:00.853Z,14.07
2023-05-11T22:51:46.180Z,14.23
2023-05-11T22:58:28.726Z,14.20
2023-05-11T23:05:11.248Z,13.00
2023-05-11T23:11:54.007Z,10.48
2023-05-11T23:18:36.742Z,10.23
2023-05-11T23:25:20.084Z,10.70
2023-05-11T23:32:03.486Z,15.90
2023-05-11T23:38:45.679Z,14.70
2023-05-11T23:45:28.206Z,13.45
2023-05-11T23:52:10.387Z,14.40
2023-05-11T23:58:52.630Z,19.83
